createdAt,value
2023-04-06T00:00:13.332Z,6.87
2023-04-06T00:02:41.992Z,7.70
2023-04-06T00:05:11.127Z,7.30
2023-04-06T00:07:41.390Z,7.13
2023-04-06T00:10:12.149Z,7.40
2023-04-06T00:12:40.681Z,7.50
2023-04-06T00:15:10.608Z,7.80
2023-04-06T00:17:39.142Z,7.87
2023-04-06T00:20:09.478Z,7.77
2023-04-06T00:22:37.944Z,7.63
2023-04-06T00:25:08.954Z,7.37
2023-04-06T00:27:37.472Z,7.43
2023-04-06T00:30:07.568Z,6.97
2023-04-06T00:32:37.366Z,6.93
2023-04-06T00:35:07.483Z,7.37
2023-04-06T00:37:36.026Z,7.00
2023-04-06T00:40:05.032Z,7.57
2023-04-06T00:42:34.947Z,7.60
2023-04-06T00:45:04.787Z,7.00
2023-04-06T00:47:33.383Z,7.60
2023-04-06T00:50:02.004Z,7.70
2023-04-06T00:52:30.462Z,7.73
2023-04-06T00:54:59.150Z,7.77
2023-04-06T00:57:27.956Z,7.73
2023-04-06T00:59:59.681Z,7.83
2023-04-06T01:02:28.278Z,7.70
2023-04-06T01:04:57.617Z,7.80
2023-04-06T01:07:31.836Z,7.20
2023-04-06T01:10:12.243Z,7.57
2023-04-06T01:12:41.272Z,8.10
2023-04-06T01:15:21.647Z,7.60
2023-04-06T01:17:53.117Z,7.47
2023-04-06T01:20:21.988Z,7.03
2023-04-06T01:22:52.109Z,7.27
2023-04-06T01:25:21.634Z,7.47
2023-04-06T01:28:04.000Z,7.53
2023-04-06T01:31:04.523Z,8.07
2023-04-06T01:33:52.312Z,7.57
2023-04-06T01:36:24.280Z,7.27
2023-04-06T01:39:02.376Z,7.80
2023-04-06T01:41:36.599Z,7.90
2023-04-06T01:44:05.548Z,7.13
2023-04-06T01:46:35.119Z,7.20
2023-04-06T01:49:06.312Z,7.70
2023-04-06T01:51:37.625Z,7.37
2023-04-06T01:54:10.665Z,8.23
2023-04-06T01:56:54.147Z,7.70
2023-04-06T01:59:30.706Z,7.73
2023-04-06T02:02:00.413Z,8.37
2023-04-06T02:04:30.353Z,11.83
2023-04-06T02:07:09.484Z,15.13
2023-04-06T02:09:39.547Z,7.67
2023-04-06T02:12:12.286Z,8.13
2023-04-06T02:14:40.848Z,8.37
2023-04-06T02:17:09.445Z,9.13
2023-04-06T02:19:38.241Z,8.80
2023-04-06T02:22:07.678Z,7.47
2023-04-06T02:24:36.560Z,7.03
2023-04-06T02:27:06.918Z,8.40
2023-04-06T02:29:35.459Z,7.83
2023-04-06T02:32:04.513Z,8.57
2023-04-06T02:34:34.920Z,8.13
2023-04-06T02:37:03.637Z,8.07
2023-04-06T02:39:32.406Z,8.33
2023-04-06T02:42:01.977Z,8.60
2023-04-06T02:44:32.993Z,9.93
2023-04-06T02:47:01.442Z,8.63
2023-04-06T02:49:30.187Z,8.47
2023-04-06T02:52:01.369Z,8.53
2023-04-06T02:54:34.161Z,8.57
2023-04-06T02:57:04.262Z,8.67
2023-04-06T02:59:44.246Z,8.30
2023-04-06T03:02:27.629Z,7.80
2023-04-06T03:05:05.256Z,8.40
2023-04-06T03:07:38.702Z,8.97
2023-04-06T03:10:11.635Z,8.20
2023-04-06T03:12:40.400Z,8.47
2023-04-06T03:15:22.881Z,8.57
2023-04-06T03:17:58.877Z,8.87
2023-04-06T03:20:35.403Z,8.10
2023-04-06T03:23:04.019Z,9.10
2023-04-06T03:25:37.009Z,8.43
2023-04-06T03:28:08.476Z,9.00
2023-04-06T03:30:44.131Z,9.10
2023-04-06T03:33:13.965Z,8.87
2023-04-06T03:35:51.924Z,9.30
2023-04-06T03:38:20.822Z,8.10
2023-04-06T03:40:49.421Z,9.47
2023-04-06T03:43:22.868Z,9.50
2023-04-06T03:45:52.781Z,8.97
2023-04-06T03:48:22.272Z,8.97
2023-04-06T03:50:51.017Z,9.47
2023-04-06T03:53:19.666Z,8.70
2023-04-06T03:55:48.164Z,8.93
2023-04-06T03:58:18.069Z,9.20
2023-04-06T04:00:47.546Z,9.07
2023-04-06T04:03:17.618Z,8.70
2023-04-06T04:05:46.344Z,9.23
2023-04-06T04:08:15.881Z,8.93
2023-04-06T04:10:44.341Z,9.70
2023-04-06T04:13:12.921Z,10.03
2023-04-06T04:15:42.641Z,10.43
2023-04-06T04:18:13.665Z,9.57
2023-04-06T04:20:43.641Z,9.70
2023-04-06T04:23:15.385Z,9.63
2023-04-06T04:25:45.574Z,10.47
2023-04-06T04:28:14.049Z,10.90
2023-04-06T04:30:44.034Z,10.80
2023-04-06T04:33:14.010Z,10.53
2023-04-06T04:35:45.465Z,10.17
2023-04-06T04:38:17.936Z,10.17
2023-04-06T04:40:52.416Z,10.43
2023-04-06T04:43:21.072Z,10.97
2023-04-06T04:45:51.709Z,10.47
2023-04-06T04:48:30.588Z,10.27
2023-04-06T04:51:04.739Z,9.63
2023-04-06T04:53:44.831Z,10.60
2023-04-06T04:56:22.095Z,9.77
2023-04-06T04:58:55.144Z,10.03
2023-04-06T05:01:24.460Z,10.20
2023-04-06T05:03:53.589Z,10.47
2023-04-06T05:06:23.599Z,9.90
2023-04-06T05:08:52.713Z,9.97
2023-04-06T05:11:22.483Z,10.07
2023-04-06T05:13:58.590Z,10.13
2023-04-06T05:16:27.491Z,10.10
2023-04-06T05:18:57.745Z,9.63
2023-04-06T05:21:32.731Z,10.13
2023-04-06T05:24:06.414Z,9.63
2023-04-06T05:26:36.437Z,10.97
2023-04-06T05:29:10.708Z,11.30
2023-04-06T05:31:40.769Z,10.90
2023-04-06T05:34:11.505Z,10.90
2023-04-06T05:36:42.359Z,10.33
2023-04-06T05:39:19.465Z,11.03
2023-04-06T05:41:53.365Z,10.53
2023-04-06T05:44:32.840Z,10.33
2023-04-06T05:47:08.300Z,11.00
2023-04-06T05:49:38.100Z,10.57
2023-04-06T05:52:12.351Z,10.67
2023-04-06T05:54:44.162Z,11.63
2023-04-06T05:57:12.838Z,10.30
2023-04-06T05:59:41.832Z,10.70
2023-04-06T06:02:11.896Z,10.70
2023-04-06T06:04:44.255Z,10.23
2023-04-06T06:07:14.374Z,10.43
2023-04-06T06:09:47.025Z,10.23
2023-04-06T06:12:26.645Z,11.17
2023-04-06T06:14:57.314Z,11.03
2023-04-06T06:17:28.247Z,10.03
2023-04-06T06:19:57.645Z,11.57
2023-04-06T06:22:27.685Z,10.13
2023-04-06T06:24:56.514Z,11.07
2023-04-06T06:27:26.047Z,10.67
2023-04-06T06:29:54.851Z,10.37
2023-04-06T06:32:24.966Z,10.57
2023-04-06T06:34:55.607Z,11.43
2023-04-06T06:37:24.134Z,11.30
2023-04-06T06:39:54.313Z,10.70
2023-04-06T06:42:23.687Z,11.30
2023-04-06T06:45:07.994Z,10.53
2023-04-06T06:47:36.646Z,11.97
2023-04-06T06:50:07.020Z,10.97
2023-04-06T06:52:35.622Z,10.30
2023-04-06T06:55:06.235Z,11.70
2023-04-06T06:57:34.921Z,11.17
2023-04-06T07:00:06.160Z,10.03
2023-04-06T07:02:37.725Z,10.27
2023-04-06T07:05:23.591Z,10.33
2023-04-06T07:07:55.889Z,10.50
2023-04-06T07:10:26.926Z,9.60
2023-04-06T07:12:55.567Z,10.50
2023-04-06T07:15:24.690Z,9.50
2023-04-06T07:17:55.544Z,9.57
2023-04-06T07:20:24.596Z,10.00
2023-04-06T07:22:53.214Z,9.80
2023-04-06T07:25:24.301Z,8.53
2023-04-06T07:27:55.532Z,8.90
2023-04-06T07:30:27.189Z,8.80
2023-04-06T07:32:56.533Z,8.17
2023-04-06T07:35:27.038Z,7.90
2023-04-06T07:37:56.473Z,8.40
2023-04-06T07:40:25.070Z,8.30
2023-04-06T07:42:56.196Z,7.93
2023-04-06T07:45:26.462Z,6.70
2023-04-06T07:47:55.580Z,6.90
2023-04-06T07:50:25.632Z,7.53
2023-04-06T07:52:55.651Z,7.03
2023-04-06T07:55:24.622Z,7.35
2023-04-06T07:57:53.260Z,7.00
2023-04-06T08:00:24.101Z,6.93
2023-04-06T08:02:52.651Z,6.83
2023-04-06T08:05:21.552Z,6.97
2023-04-06T08:07:50.103Z,7.00
2023-04-06T08:10:18.543Z,6.90
2023-04-06T08:12:46.981Z,6.90
2023-04-06T08:15:15.906Z,6.40
2023-04-06T08:17:45.741Z,7.13
2023-04-06T08:20:14.291Z,6.90
2023-04-06T08:22:42.724Z,6.60
2023-04-06T08:25:11.387Z,6.97
2023-04-06T08:27:39.892Z,7.17
2023-04-06T08:30:11.142Z,7.20
2023-04-06T08:32:39.734Z,7.40
2023-04-06T08:35:10.502Z,7.20
2023-04-06T08:37:38.942Z,7.87
2023-04-06T08:40:09.606Z,7.00
2023-04-06T08:42:46.240Z,7.50
2023-04-06T08:45:18.757Z,7.95
2023-04-06T08:47:49.113Z,8.70
2023-04-06T08:50:19.981Z,7.77
2023-04-06T08:52:50.713Z,7.93
2023-04-06T08:55:19.557Z,8.02
2023-04-06T08:57:49.115Z,8.18
2023-04-06T09:00:19.823Z,7.90
2023-04-06T09:02:51.290Z,7.65
2023-04-06T09:05:21.677Z,7.65
2023-04-06T09:07:50.360Z,7.28
2023-04-06T09:10:19.799Z,6.97
2023-04-06T09:12:48.311Z,6.43
2023-04-06T09:15:25.158Z,6.60
2023-04-06T09:17:55.492Z,6.13
2023-04-06T09:20:28.958Z,7.28
2023-04-06T09:22:57.856Z,7.03
2023-04-06T09:25:28.419Z,6.22
2023-04-06T09:28:07.763Z,6.72
2023-04-06T09:30:36.956Z,6.05
2023-04-06T09:33:05.733Z,6.45
2023-04-06T09:35:35.634Z,5.65
2023-04-06T09:38:13.823Z,5.70
2023-04-06T09:41:00.766Z,6.10
2023-04-06T09:43:30.584Z,6.25
2023-04-06T09:46:00.902Z,6.10
2023-04-06T09:48:33.206Z,6.40
2023-04-06T09:51:08.573Z,6.00
2023-04-06T09:53:42.964Z,5.95
2023-04-06T09:56:22.580Z,5.32
2023-04-06T09:58:54.961Z,6.05
2023-04-06T10:01:28.329Z,5.90
2023-04-06T10:04:13.440Z,5.68
2023-04-06T10:06:44.039Z,4.95
2023-04-06T10:09:14.765Z,5.20
2023-04-06T10:11:44.532Z,5.45
2023-04-06T10:14:13.825Z,5.15
2023-04-06T10:16:42.373Z,4.45
2023-04-06T10:19:17.701Z,4.68
2023-04-06T10:21:55.421Z,4.90
2023-04-06T10:24:24.010Z,5.18
2023-04-06T10:27:04.233Z,5.15
2023-04-06T10:29:46.217Z,5.35
2023-04-06T10:32:14.935Z,5.65
2023-04-06T10:34:43.424Z,5.95
2023-04-06T10:37:19.901Z,5.28
2023-04-06T10:39:49.774Z,5.80
2023-04-06T10:42:18.634Z,6.22
2023-04-06T10:44:47.435Z,5.63
2023-04-06T10:47:19.960Z,7.07
2023-04-06T10:49:48.525Z,6.30
2023-04-06T10:52:18.611Z,5.68
2023-04-06T10:54:50.456Z,5.38
2023-04-06T10:57:30.356Z,5.53
2023-04-06T10:59:58.976Z,6.03
2023-04-06T11:02:29.070Z,5.90
2023-04-06T11:04:59.256Z,6.78
2023-04-06T11:07:30.545Z,6.68
2023-04-06T11:10:14.030Z,6.90
2023-04-06T11:12:45.596Z,6.65
2023-04-06T11:15:14.073Z,6.10
2023-04-06T11:17:42.652Z,6.70
2023-04-06T11:20:13.758Z,6.88
2023-04-06T11:22:52.800Z,7.78
2023-04-06T11:25:21.391Z,6.50
2023-04-06T11:27:50.502Z,7.20
2023-04-06T11:30:20.412Z,7.68
2023-04-06T11:32:49.054Z,7.57
2023-04-06T11:35:23.242Z,7.22
2023-04-06T11:37:53.759Z,7.63
2023-04-06T11:40:25.677Z,7.40
2023-04-06T11:42:58.514Z,8.07
2023-04-06T11:45:29.596Z,7.80
2023-04-06T11:48:00.419Z,7.93
2023-04-06T11:50:35.995Z,8.27
2023-04-06T11:53:05.900Z,8.45
2023-04-06T11:55:41.035Z,8.13
2023-04-06T11:58:09.564Z,7.88
2023-04-06T12:00:38.105Z,8.52
2023-04-06T12:03:06.996Z,8.73
2023-04-06T12:05:36.129Z,7.70
2023-04-06T12:08:06.186Z,8.68
2023-04-06T12:10:34.802Z,7.93
2023-04-06T12:13:03.466Z,7.82
2023-04-06T12:15:31.973Z,7.70
2023-04-06T12:18:00.726Z,7.95
2023-04-06T12:20:29.324Z,8.68
2023-04-06T12:22:57.881Z,7.80
2023-04-06T12:25:27.725Z,8.15
2023-04-06T12:27:56.909Z,7.53
2023-04-06T12:30:25.366Z,6.60
2023-04-06T12:32:53.950Z,7.80
2023-04-06T12:35:22.766Z,7.70
2023-04-06T12:37:51.331Z,7.80
2023-04-06T12:40:20.049Z,8.55
2023-04-06T12:42:49.876Z,7.85
2023-04-06T12:45:20.858Z,7.93
2023-04-06T12:47:49.330Z,8.38
2023-04-06T12:50:18.086Z,8.02
2023-04-06T12:52:46.503Z,8.25
2023-04-06T12:55:16.204Z,8.32
2023-04-06T12:57:45.350Z,8.40
2023-04-06T13:00:17.131Z,8.43
2023-04-06T13:02:48.186Z,9.43
2023-04-06T13:05:19.719Z,8.57
2023-04-06T13:07:48.651Z,9.18
2023-04-06T13:10:17.392Z,8.85
2023-04-06T13:12:45.826Z,8.45
2023-04-06T13:15:16.101Z,8.40
2023-04-06T13:17:44.587Z,8.48
2023-04-06T13:20:14.216Z,8.68
2023-04-06T13:22:42.652Z,8.30
2023-04-06T13:25:11.287Z,8.50
2023-04-06T13:27:40.240Z,8.57
2023-04-06T13:30:11.128Z,8.50
2023-04-06T13:32:41.260Z,8.65
2023-04-06T13:35:11.007Z,8.93
2023-04-06T13:37:40.966Z,8.68
2023-04-06T13:40:11.131Z,9.00
2023-04-06T13:42:41.798Z,8.50
2023-04-06T13:45:11.882Z,8.82
2023-04-06T13:47:42.177Z,8.85
2023-04-06T13:50:11.328Z,8.27
2023-04-06T13:52:39.825Z,9.35
2023-04-06T13:55:09.169Z,9.02
2023-04-06T13:57:38.697Z,8.98
2023-04-06T14:00:10.107Z,7.88
2023-04-06T14:02:38.549Z,8.70
2023-04-06T14:05:09.841Z,8.02
2023-04-06T14:07:38.137Z,8.57
2023-04-06T14:10:14.439Z,7.53
2023-04-06T14:12:43.431Z,8.00
2023-04-06T14:15:13.518Z,9.05
2023-04-06T14:17:42.053Z,8.40
2023-04-06T14:20:15.707Z,9.02
2023-04-06T14:22:44.371Z,8.70
2023-04-06T14:25:13.557Z,8.73
2023-04-06T14:27:41.904Z,7.50
2023-04-06T14:30:11.800Z,7.70
2023-04-06T14:32:40.842Z,9.15
2023-04-06T14:35:11.670Z,9.65
2023-04-06T14:37:40.004Z,8.73
2023-04-06T14:40:10.218Z,9.02
2023-04-06T14:42:38.678Z,8.90
2023-04-06T14:45:08.314Z,8.38
2023-04-06T14:47:36.715Z,8.43
2023-04-06T14:50:06.156Z,8.38
2023-04-06T14:52:35.957Z,8.80
2023-04-06T14:55:04.531Z,9.05
2023-04-06T14:57:33.671Z,9.45
2023-04-06T15:00:01.880Z,9.60
2023-04-06T15:02:30.442Z,9.30
2023-04-06T15:04:59.406Z,9.30
2023-04-06T15:07:27.822Z,8.07
2023-04-06T15:09:57.520Z,8.35
2023-04-06T15:12:25.902Z,9.38
2023-04-06T15:14:54.383Z,9.10
2023-04-06T15:17:22.707Z,8.88
2023-04-06T15:19:51.169Z,9.07
2023-04-06T15:22:19.439Z,9.00
2023-04-06T15:24:47.777Z,9.20
2023-04-06T15:27:17.396Z,8.40
2023-04-06T15:29:45.899Z,9.23
2023-04-06T15:32:14.348Z,8.63
2023-04-06T15:34:42.685Z,8.90
2023-04-06T15:37:11.185Z,8.30
2023-04-06T15:39:39.460Z,8.30
2023-04-06T15:42:07.720Z,8.40
2023-04-06T15:44:37.416Z,8.80
2023-04-06T15:47:05.840Z,8.45
2023-04-06T15:49:34.862Z,8.98
2023-04-06T15:52:03.264Z,8.95
2023-04-06T15:54:31.534Z,9.45
2023-04-06T15:56:59.813Z,9.00
2023-04-06T15:59:28.082Z,8.38
2023-04-06T16:01:57.756Z,7.97
2023-04-06T16:04:26.220Z,9.02
2023-04-06T16:06:54.591Z,8.60
2023-04-06T16:09:22.876Z,8.63
2023-04-06T16:11:51.115Z,8.65
2023-04-06T16:14:19.447Z,9.05
2023-04-06T16:16:47.854Z,8.40
2023-04-06T16:19:17.751Z,8.20
2023-04-06T16:21:46.429Z,7.97
2023-04-06T16:24:14.727Z,8.57
2023-04-06T16:26:44.359Z,8.45
2023-04-06T16:29:12.892Z,8.45
2023-04-06T16:31:41.637Z,8.40
2023-04-06T16:34:10.035Z,8.30
2023-04-06T16:36:41.017Z,8.32
2023-04-06T16:39:11.175Z,8.60
2023-04-06T16:41:40.789Z,9.48
2023-04-06T16:44:09.149Z,8.52
2023-04-06T16:46:39.081Z,9.35
2023-04-06T16:49:07.857Z,9.45
2023-04-06T16:51:37.010Z,9.55
2023-04-06T16:54:06.817Z,8.85
2023-04-06T16:56:35.215Z,9.20
2023-04-06T16:59:03.504Z,8.48
2023-04-06T17:01:31.897Z,8.93
2023-04-06T17:04:00.662Z,8.73
2023-04-06T17:06:29.205Z,8.98
2023-04-06T17:08:59.642Z,9.57
2023-04-06T17:11:39.861Z,9.32
2023-04-06T17:14:14.696Z,9.15
2023-04-06T17:16:43.237Z,8.90
2023-04-06T17:19:11.542Z,9.50
2023-04-06T17:21:42.044Z,8.80
2023-04-06T17:24:10.552Z,8.93
2023-04-06T17:26:40.411Z,9.85
2023-04-06T17:29:08.684Z,8.95
2023-04-06T17:31:37.095Z,8.75
2023-04-06T17:34:05.466Z,10.18
2023-04-06T17:36:33.862Z,9.57
2023-04-06T17:39:02.265Z,9.55
2023-04-06T17:41:32.678Z,9.27
2023-04-06T17:44:02.355Z,9.30
2023-04-06T17:46:30.806Z,9.70
2023-04-06T17:48:59.247Z,9.43
2023-04-06T17:51:27.683Z,8.60
2023-04-06T17:53:55.991Z,9.45
2023-04-06T17:56:24.400Z,9.48
2023-04-06T17:58:56.998Z,9.40
2023-04-06T18:01:26.742Z,9.95
2023-04-06T18:03:55.051Z,9.27
2023-04-06T18:06:25.667Z,8.75
2023-04-06T18:08:55.691Z,9.23
2023-04-06T18:11:25.684Z,9.88
2023-04-06T18:13:54.159Z,9.27
2023-04-06T18:16:22.575Z,9.40
2023-04-06T18:18:52.302Z,9.55
2023-04-06T18:21:20.681Z,9.18
2023-04-06T18:23:49.319Z,10.00
2023-04-06T18:26:19.602Z,9.30
2023-04-06T18:28:49.087Z,9.40
2023-04-06T18:31:17.400Z,9.10
2023-04-06T18:33:46.812Z,9.00
2023-04-06T18:36:16.618Z,9.60
2023-04-06T18:38:47.813Z,9.60
2023-04-06T18:41:16.295Z,9.73
2023-04-06T18:43:44.586Z,9.50
2023-04-06T18:46:14.344Z,9.10
2023-04-06T18:48:42.976Z,9.40
2023-04-06T18:51:11.635Z,9.52
2023-04-06T18:53:41.577Z,9.63
2023-04-06T18:56:18.447Z,10.70
2023-04-06T18:58:48.199Z,10.10
2023-04-06T19:01:24.738Z,10.05
2023-04-06T19:03:54.228Z,9.68
2023-04-06T19:06:22.966Z,11.00
2023-04-06T19:08:52.648Z,12.27
2023-04-06T19:11:23.025Z,11.18
2023-04-06T19:13:51.398Z,11.68
2023-04-06T19:16:19.826Z,12.68
2023-04-06T19:18:48.195Z,12.73
2023-04-06T19:21:17.849Z,11.55
2023-04-06T19:23:46.378Z,12.82
2023-04-06T19:26:17.979Z,11.38
2023-04-06T19:28:47.493Z,12.38
2023-04-06T19:31:18.464Z,11.73
2023-04-06T19:33:47.992Z,11.82
2023-04-06T19:36:17.192Z,12.02
2023-04-06T19:38:45.824Z,13.90
2023-04-06T19:41:15.548Z,15.13
2023-04-06T19:43:43.982Z,14.85
2023-04-06T19:46:13.835Z,16.90
2023-04-06T19:48:42.342Z,17.30
2023-04-06T19:51:10.674Z,17.33
2023-04-06T19:53:38.937Z,16.83
2023-04-06T19:56:07.299Z,18.88
2023-04-06T19:58:37.667Z,19.65
2023-04-06T20:01:06.456Z,19.83
2023-04-06T20:03:36.420Z,19.42
2023-04-06T20:06:05.110Z,18.15
2023-04-06T20:08:33.466Z,17.35
2023-04-06T20:11:03.217Z,15.90
2023-04-06T20:13:31.909Z,15.20
2023-04-06T20:16:01.768Z,14.93
2023-04-06T20:18:31.794Z,14.23
2023-04-06T20:21:00.303Z,14.32
2023-04-06T20:23:28.598Z,13.93
2023-04-06T20:25:58.273Z,13.90
2023-04-06T20:28:26.569Z,14.25
2023-04-06T20:30:54.990Z,13.48
2023-04-06T20:33:24.682Z,12.77
2023-04-06T20:35:58.709Z,14.38
2023-04-06T20:38:33.111Z,13.70
2023-04-06T20:41:02.469Z,13.38
2023-04-06T20:43:31.868Z,13.27
2023-04-06T20:46:02.131Z,13.13
2023-04-06T20:48:35.962Z,12.93
2023-04-06T20:51:06.465Z,13.18
2023-04-06T20:53:38.088Z,12.50
2023-04-06T20:56:07.179Z,12.80
2023-04-06T20:58:35.765Z,12.63
2023-04-06T21:01:04.172Z,12.65
2023-04-06T21:03:33.988Z,13.48
2023-04-06T21:06:02.450Z,12.95
2023-04-06T21:08:30.795Z,13.27
2023-04-06T21:10:59.071Z,12.70
2023-04-06T21:13:27.456Z,12.70
2023-04-06T21:15:57.057Z,13.07
2023-04-06T21:18:25.796Z,13.63
2023-04-06T21:20:55.534Z,13.23
2023-04-06T21:23:23.957Z,12.53
2023-04-06T21:25:55.312Z,12.77
2023-04-06T21:28:24.072Z,12.63
2023-04-06T21:30:52.757Z,12.55
2023-04-06T21:33:21.164Z,13.27
2023-04-06T21:35:50.106Z,12.93
2023-04-06T21:38:19.664Z,13.23
2023-04-06T21:40:56.425Z,13.13
2023-04-06T21:43:24.786Z,12.90
2023-04-06T21:45:53.400Z,13.17
2023-04-06T21:48:21.719Z,13.77
2023-04-06T21:50:50.044Z,12.80
2023-04-06T21:53:19.664Z,12.93
2023-04-06T21:55:48.835Z,13.73
2023-04-06T21:58:17.614Z,13.17
2023-04-06T22:00:46.300Z,13.40
2023-04-06T22:03:14.837Z,13.40
2023-04-06T22:05:43.182Z,14.02
2023-04-06T22:08:17.937Z,14.03
2023-04-06T22:10:55.539Z,14.50
2023-04-06T22:13:23.895Z,14.07
2023-04-06T22:15:52.178Z,13.93
2023-04-06T22:18:21.059Z,14.40
2023-04-06T22:20:49.339Z,14.10
2023-04-06T22:23:17.840Z,12.93
2023-04-06T22:25:46.134Z,14.20
2023-04-06T22:28:15.933Z,13.53
2023-04-06T22:30:44.210Z,13.33
2023-04-06T22:33:12.565Z,13.47
2023-04-06T22:35:41.844Z,13.73
2023-04-06T22:38:10.206Z,13.33
2023-04-06T22:40:38.489Z,13.63
2023-04-06T22:43:06.859Z,13.50
2023-04-06T22:45:36.526Z,13.47
2023-04-06T22:48:05.109Z,13.20
2023-04-06T22:50:33.387Z,13.27
2023-04-06T22:53:02.258Z,12.70
2023-04-06T22:55:31.077Z,13.67
2023-04-06T22:57:59.424Z,14.00
2023-04-06T23:00:27.663Z,12.60
2023-04-06T23:02:57.442Z,12.87
2023-04-06T23:05:26.430Z,13.00
2023-04-06T23:07:54.713Z,12.27
2023-04-06T23:10:23.022Z,13.03
2023-04-06T23:12:51.418Z,12.23
2023-04-06T23:15:19.952Z,12.83
2023-04-06T23:17:49.020Z,12.73
2023-04-06T23:20:18.720Z,13.10
2023-04-06T23:22:47.029Z,11.77
2023-04-06T23:25:15.594Z,12.67
2023-04-06T23:27:44.168Z,12.33
2023-04-06T23:30:13.121Z,11.33
2023-04-06T23:32:41.579Z,11.50
2023-04-06T23:35:10.742Z,12.73
2023-04-06T23:37:40.450Z,12.10
2023-04-06T23:40:10.415Z,12.03
2023-04-06T23:42:38.755Z,11.40
2023-04-06T23:45:08.987Z,12.17
2023-04-06T23:47:37.327Z,11.37
2023-04-06T23:50:06.891Z,11.57
2023-04-06T23:52:35.375Z,11.90
2023-04-06T23:55:06.271Z,10.97
2023-04-06T23:57:34.620Z,11.07
